KHMN

Holloman AFB Airport

Alamogordo, New Mexico, USA
METAR KHMN 240158Z AUTO 20006KT 10SM CLR 30/M10 A2998 RMK AO2 SLP078 T02991097 $
Observed Flight Rules
May-24 @ 01:58 UTC (12 minutes ago) Visual Flight Rules
Wind Visibility Clouds
200° at 6 knots 10 miles
  • Clear skies
Temperatures Readings
Current 30°C / 86°F
Dewpoint -10°C / 14°F
Humidity 7%
Altimeter 29.98" Hg
Pressure 1007.8 hPa
Elevation 1248
METAR KHMN 240158Z AUTO 20006KT 10SM CLR 30/M10 A2998 RMK AO2 SLP078 T02991097 $
Observed Flight Rules
May-24 @ 01:58 UTC
(12 minutes ago)
VFR
Wind Visibility
200° at 6 knots 10 miles
Clouds
  • Clear skies
Temperature Dewpoint
30°C / 86°F -10°C / 14°F
Humidity Altimeter Pressure
7% 29.98" Hg 1007.8 hPa